createdAt,value
2023-09-08T00:00:02.143Z,30.12
2023-09-08T00:02:51.918Z,30.11
2023-09-08T00:05:39.313Z,30.11
2023-09-08T00:08:26.599Z,30.10
2023-09-08T00:11:13.711Z,30.12
2023-09-08T00:14:00.943Z,30.11
2023-09-08T00:16:48.291Z,30.11
2023-09-08T00:19:35.988Z,30.10
2023-09-08T00:22:23.233Z,30.08
2023-09-08T00:25:10.439Z,30.09
2023-09-08T00:27:57.632Z,30.08
2023-09-08T00:30:44.738Z,30.07
2023-09-08T00:33:32.346Z,30.07
2023-09-08T00:36:20.241Z,30.07
2023-09-08T00:39:07.440Z,30.07
2023-09-08T00:41:55.136Z,30.07
2023-09-08T00:44:42.384Z,30.07
2023-09-08T00:47:29.984Z,30.07
2023-09-08T00:50:17.272Z,30.05
2023-09-08T00:53:06.639Z,30.07
2023-09-08T00:55:55.180Z,30.06
2023-09-08T00:58:42.463Z,30.07
2023-09-08T01:01:30.369Z,30.06
2023-09-08T01:04:17.544Z,30.06
2023-09-08T01:07:05.450Z,30.07
2023-09-08T01:09:53.372Z,30.05
2023-09-08T01:12:41.358Z,30.07
2023-09-08T01:15:28.520Z,30.04
2023-09-08T01:18:15.750Z,30.05
2023-09-08T01:21:52.375Z,30.05
2023-09-08T01:25:13.522Z,30.13
2023-09-08T01:28:03.370Z,30.08
2023-09-08T01:30:52.734Z,30.05
2023-09-08T01:33:41.551Z,30.05
2023-09-08T01:36:28.666Z,30.01
2023-09-08T01:39:15.814Z,30.05
2023-09-08T01:42:03.116Z,30.01
2023-09-08T01:44:50.288Z,30.02
2023-09-08T01:47:38.704Z,30.02
2023-09-08T01:50:26.341Z,30.02
2023-09-08T01:53:13.509Z,30.02
2023-09-08T01:56:00.799Z,30.03
2023-09-08T01:58:48.015Z,30.03
2023-09-08T02:01:35.194Z,30.02
2023-09-08T02:04:22.567Z,30.02
2023-09-08T02:07:09.867Z,30.03
2023-09-08T02:09:57.015Z,30.03
2023-09-08T02:12:44.157Z,30.01
2023-09-08T02:15:31.323Z,30.01
2023-09-08T02:18:18.564Z,30.01
2023-09-08T02:21:05.739Z,30.04
2023-09-08T02:23:52.944Z,30.05
2023-09-08T02:26:41.995Z,30.03
2023-09-08T02:29:29.573Z,30.02
2023-09-08T02:32:16.740Z,30.01
2023-09-08T02:35:04.570Z,30.01
2023-09-08T02:37:51.896Z,30.03
2023-09-08T02:40:40.020Z,30.01
2023-09-08T02:43:28.408Z,30.01
2023-09-08T02:46:16.632Z,30.02
2023-09-08T02:49:04.744Z,30.02
2023-09-08T02:51:52.020Z,30.03
2023-09-08T02:54:39.309Z,30.01
2023-09-08T02:57:26.642Z,30.02
2023-09-08T03:00:14.386Z,30.00
2023-09-08T03:03:01.638Z,30.00
2023-09-08T03:05:49.132Z,29.98
2023-09-08T03:08:38.164Z,30.00
2023-09-08T03:11:25.559Z,30.02
2023-09-08T03:14:12.726Z,29.99
2023-09-08T03:17:00.141Z,29.99
2023-09-08T03:19:47.782Z,29.99
2023-09-08T03:22:34.917Z,29.98
2023-09-08T03:25:22.579Z,29.97
2023-09-08T03:28:09.766Z,29.97
2023-09-08T03:30:56.976Z,29.98
2023-09-08T03:33:44.433Z,29.99
2023-09-08T03:36:36.821Z,29.94
2023-09-08T03:39:24.376Z,29.96
2023-09-08T03:42:11.504Z,29.94
2023-09-08T03:44:58.709Z,29.92
2023-09-08T03:47:46.014Z,29.97
2023-09-08T03:50:33.781Z,29.94
2023-09-08T03:53:21.039Z,29.98
2023-09-08T03:56:08.252Z,29.97
2023-09-08T03:58:55.727Z,29.97
2023-09-08T04:01:43.007Z,29.94
2023-09-08T04:04:30.170Z,29.93
2023-09-08T04:07:17.402Z,29.94
2023-09-08T04:10:05.314Z,29.96
2023-09-08T04:12:52.618Z,29.93
2023-09-08T04:15:40.585Z,29.94
2023-09-08T04:18:28.361Z,29.95
2023-09-08T04:21:15.611Z,29.96
2023-09-08T04:24:03.037Z,29.94
2023-09-08T04:26:50.297Z,29.96
2023-09-08T04:29:37.691Z,29.94
2023-09-08T04:32:24.954Z,29.93
2023-09-08T04:35:12.882Z,29.90
2023-09-08T04:38:01.429Z,29.83
2023-09-08T04:40:52.016Z,29.75
2023-09-08T04:43:39.340Z,29.70
2023-09-08T04:46:26.619Z,29.65
2023-09-08T04:49:14.110Z,29.62
2023-09-08T04:52:01.407Z,29.60
2023-09-08T04:54:50.199Z,29.56
2023-09-08T04:57:37.381Z,29.53
2023-09-08T05:00:25.054Z,29.52
2023-09-08T05:03:12.828Z,29.46
2023-09-08T05:06:00.327Z,29.42
2023-09-08T05:08:49.014Z,29.42
2023-09-08T05:11:36.994Z,29.40
2023-09-08T05:14:26.005Z,29.36
2023-09-08T05:17:13.708Z,29.37
2023-09-08T05:20:00.985Z,29.34
2023-09-08T05:22:49.237Z,29.32
2023-09-08T05:25:36.365Z,29.32
2023-09-08T05:28:23.976Z,29.29
2023-09-08T05:31:11.465Z,29.26
2023-09-08T05:33:58.923Z,29.27
2023-09-08T05:36:46.820Z,29.26
2023-09-08T05:39:34.301Z,29.24
2023-09-08T05:42:21.459Z,29.23
2023-09-08T05:45:09.166Z,29.22
2023-09-08T05:47:56.491Z,29.19
2023-09-08T05:50:44.186Z,29.18
2023-09-08T05:53:32.145Z,29.17
2023-09-08T05:56:21.154Z,29.17
2023-09-08T05:59:08.487Z,29.17
2023-09-08T06:01:55.772Z,29.14
2023-09-08T06:04:43.127Z,29.10
2023-09-08T06:07:30.826Z,29.14
2023-09-08T06:10:18.144Z,29.14
2023-09-08T06:13:06.463Z,29.14
2023-09-08T06:15:53.835Z,29.13
2023-09-08T06:18:41.618Z,29.14
2023-09-08T06:21:33.621Z,29.16
2023-09-08T06:24:20.821Z,29.17
2023-09-08T06:27:08.865Z,29.18
2023-09-08T06:29:57.824Z,29.18
2023-09-08T06:32:45.621Z,29.22
2023-09-08T06:35:35.021Z,29.22
2023-09-08T06:38:22.330Z,29.24
2023-09-08T06:41:12.642Z,29.23
2023-09-08T06:44:00.989Z,29.23
2023-09-08T06:46:49.559Z,29.21
2023-09-08T06:49:36.863Z,29.22
2023-09-08T06:52:24.316Z,29.20
2023-09-08T06:55:11.514Z,29.14
2023-09-08T06:57:59.017Z,29.09
2023-09-08T07:00:46.396Z,29.02
2023-09-08T07:03:38.500Z,28.99
2023-09-08T07:06:28.148Z,28.97
2023-09-08T07:09:17.215Z,28.97
2023-09-08T07:12:07.972Z,29.00
2023-09-08T07:14:55.400Z,28.98
2023-09-08T07:17:43.233Z,29.01
2023-09-08T07:20:31.271Z,29.04
2023-09-08T07:23:21.670Z,29.08
2023-09-08T07:26:08.893Z,29.11
2023-09-08T07:28:56.318Z,29.15
2023-09-08T07:31:43.991Z,29.18
2023-09-08T07:34:31.312Z,29.21
2023-09-08T07:37:18.656Z,29.25
2023-09-08T07:40:06.980Z,29.27
2023-09-08T07:42:54.445Z,29.30
2023-09-08T07:45:42.226Z,29.33
2023-09-08T07:48:29.807Z,29.32
2023-09-08T07:51:17.078Z,29.35
2023-09-08T07:54:05.506Z,29.32
2023-09-08T07:56:52.864Z,29.31
2023-09-08T07:59:40.086Z,29.32
2023-09-08T08:02:27.297Z,29.31
2023-09-08T08:05:14.616Z,29.33
2023-09-08T08:08:01.935Z,29.32
2023-09-08T08:10:49.130Z,29.30
2023-09-08T08:13:36.225Z,29.32
2023-09-08T08:16:24.202Z,29.33
2023-09-08T08:19:11.314Z,29.33
2023-09-08T08:21:59.191Z,29.36
2023-09-08T08:24:46.867Z,29.35
2023-09-08T08:27:34.089Z,29.39
2023-09-08T08:30:21.443Z,29.45
2023-09-08T08:33:08.759Z,29.50
2023-09-08T08:35:56.076Z,29.53
2023-09-08T08:38:43.196Z,29.55
2023-09-08T08:41:30.646Z,29.59
2023-09-08T08:44:20.039Z,29.63
2023-09-08T08:47:12.289Z,29.67
2023-09-08T08:50:01.810Z,29.66
2023-09-08T08:52:49.296Z,29.69
2023-09-08T08:55:37.027Z,29.71
2023-09-08T08:58:27.735Z,29.73
2023-09-08T09:01:20.154Z,29.75
2023-09-08T09:04:08.092Z,29.76
2023-09-08T09:06:55.594Z,29.80
2023-09-08T09:09:42.795Z,29.81
2023-09-08T09:12:30.741Z,29.83
2023-09-08T09:15:33.722Z,29.88
2023-09-08T09:18:21.232Z,29.85
2023-09-08T09:21:08.472Z,29.86
2023-09-08T09:23:57.040Z,29.87
2023-09-08T09:26:44.919Z,29.88
2023-09-08T09:29:32.481Z,29.90
2023-09-08T09:32:26.669Z,29.91
2023-09-08T09:35:13.807Z,29.91
2023-09-08T09:38:00.964Z,29.92
2023-09-08T09:40:49.996Z,29.92
2023-09-08T09:43:38.096Z,29.96
2023-09-08T09:46:28.402Z,29.96
2023-09-08T09:49:20.582Z,30.18
2023-09-08T09:52:07.801Z,30.06
2023-09-08T09:54:57.778Z,30.01
2023-09-08T09:57:45.213Z,30.00
2023-09-08T10:00:35.750Z,30.00
2023-09-08T10:03:25.705Z,30.00
2023-09-08T10:06:15.724Z,30.03
2023-09-08T10:09:10.031Z,30.04
2023-09-08T10:12:04.300Z,30.06
2023-09-08T10:14:55.779Z,30.07
2023-09-08T10:17:47.219Z,30.09
2023-09-08T10:20:35.957Z,30.08
2023-09-08T10:23:49.059Z,30.15
2023-09-08T10:26:40.228Z,30.11
2023-09-08T10:29:28.566Z,30.10
2023-09-08T10:32:17.984Z,30.10
2023-09-08T10:35:07.488Z,30.11
2023-09-08T10:38:25.241Z,30.20
2023-09-08T10:41:18.418Z,30.20
2023-09-08T10:44:09.862Z,30.17
2023-09-08T10:46:59.088Z,30.13
2023-09-08T10:49:46.682Z,30.15
2023-09-08T10:52:36.301Z,30.16
2023-09-08T10:55:38.567Z,30.23
2023-09-08T10:58:34.189Z,30.22
2023-09-08T11:01:28.849Z,30.19
2023-09-08T11:04:20.305Z,30.20
2023-09-08T11:07:07.647Z,30.21
2023-09-08T11:09:55.270Z,30.19
2023-09-08T11:12:42.507Z,30.20
2023-09-08T11:15:29.674Z,30.20
2023-09-08T11:18:16.944Z,30.22
2023-09-08T11:21:09.259Z,30.22
2023-09-08T11:23:56.952Z,30.23
2023-09-08T11:26:47.577Z,30.23
2023-09-08T11:29:34.755Z,30.23
2023-09-08T11:32:22.571Z,30.25
2023-09-08T11:35:11.591Z,30.26
2023-09-08T11:38:02.201Z,30.27
2023-09-08T11:40:50.343Z,30.25
2023-09-08T11:43:38.194Z,30.26
2023-09-08T11:46:27.303Z,30.25
2023-09-08T11:49:14.595Z,30.28
2023-09-08T11:52:01.832Z,30.25
2023-09-08T11:55:04.165Z,30.28
2023-09-08T11:57:58.279Z,30.27
2023-09-08T12:00:49.024Z,30.28
2023-09-08T12:03:36.318Z,30.27
2023-09-08T12:06:30.092Z,30.30
2023-09-08T12:09:17.640Z,30.29
2023-09-08T12:12:11.678Z,30.27
2023-09-08T12:14:58.842Z,30.28
2023-09-08T12:17:51.258Z,30.32
2023-09-08T12:20:40.629Z,30.28
2023-09-08T12:23:27.737Z,30.29
2023-09-08T12:26:14.960Z,30.30
2023-09-08T12:29:13.130Z,30.31
2023-09-08T12:32:00.333Z,30.28
2023-09-08T12:34:47.891Z,30.28
2023-09-08T12:37:35.241Z,30.30
2023-09-08T12:40:22.773Z,30.26
2023-09-08T12:43:14.779Z,30.30
2023-09-08T12:46:14.459Z,30.31
2023-09-08T12:49:01.596Z,30.30
2023-09-08T12:51:48.970Z,30.30
2023-09-08T12:54:36.741Z,30.29
2023-09-08T12:57:23.910Z,30.30
2023-09-08T13:00:11.795Z,30.31
2023-09-08T13:02:59.473Z,30.32
2023-09-08T13:05:46.823Z,30.32
2023-09-08T13:08:34.398Z,30.32
2023-09-08T13:11:22.694Z,30.31
2023-09-08T13:14:10.136Z,30.34
2023-09-08T13:16:57.261Z,30.32
2023-09-08T13:19:46.333Z,30.33
2023-09-08T13:22:33.728Z,30.35
2023-09-08T13:25:21.004Z,30.32
2023-09-08T13:28:08.299Z,30.35
2023-09-08T13:30:55.604Z,30.33
2023-09-08T13:33:42.755Z,30.34
2023-09-08T13:36:29.903Z,30.35
2023-09-08T13:39:17.329Z,30.37
2023-09-08T13:42:04.770Z,30.34
2023-09-08T13:44:52.127Z,30.37
2023-09-08T13:47:40.232Z,30.38
2023-09-08T13:50:28.121Z,30.36
2023-09-08T13:53:15.633Z,30.34
2023-09-08T13:56:08.991Z,30.38
2023-09-08T13:58:57.685Z,30.38
2023-09-08T14:04:34.512Z,30.37
2023-09-08T14:07:27.647Z,30.38
2023-09-08T14:10:29.301Z,30.39
2023-09-08T14:13:25.189Z,30.39
2023-09-08T14:16:13.920Z,30.41
2023-09-08T14:19:01.075Z,30.41
2023-09-08T14:21:48.337Z,30.39
2023-09-08T14:24:35.474Z,30.39
2023-09-08T14:27:22.630Z,30.42
2023-09-08T14:30:10.411Z,30.42
2023-09-08T14:32:57.780Z,30.43
2023-09-08T14:35:47.171Z,30.42
2023-09-08T14:38:34.360Z,30.42
2023-09-08T14:41:21.513Z,30.40
2023-09-08T14:44:08.738Z,30.42
2023-09-08T14:46:55.874Z,30.42
2023-09-08T14:49:43.785Z,30.42
2023-09-08T14:52:30.905Z,30.44
2023-09-08T14:55:18.166Z,30.46
2023-09-08T14:58:05.373Z,30.43
2023-09-08T15:00:53.057Z,30.44
2023-09-08T15:03:40.811Z,30.46
2023-09-08T15:06:28.802Z,30.46
2023-09-08T15:09:16.247Z,30.48
2023-09-08T15:12:03.709Z,30.47
2023-09-08T15:14:50.859Z,30.48
2023-09-08T15:17:37.987Z,30.45
2023-09-08T15:20:25.645Z,30.47
2023-09-08T15:23:12.885Z,30.47
2023-09-08T15:26:00.213Z,30.49
2023-09-08T15:28:47.352Z,30.49
2023-09-08T15:31:34.740Z,30.48
2023-09-08T15:34:22.051Z,30.52
2023-09-08T15:37:09.225Z,30.49
2023-09-08T15:39:56.409Z,30.50
2023-09-08T15:42:44.527Z,30.51
2023-09-08T15:45:31.948Z,30.51
2023-09-08T15:48:19.178Z,30.52
2023-09-08T15:51:09.599Z,30.50
2023-09-08T15:53:56.729Z,30.53
2023-09-08T15:56:47.000Z,30.49
2023-09-08T15:59:34.558Z,30.52
2023-09-08T16:02:21.703Z,30.53
2023-09-08T16:05:09.253Z,30.53
2023-09-08T16:07:56.411Z,30.53
2023-09-08T16:10:44.497Z,30.55
2023-09-08T16:13:32.725Z,30.55
2023-09-08T16:16:19.942Z,30.54
2023-09-08T16:19:07.456Z,30.56
2023-09-08T16:21:54.621Z,30.56
2023-09-08T16:24:41.821Z,30.55
2023-09-08T16:27:29.670Z,30.58
2023-09-08T16:30:16.894Z,30.58
2023-09-08T16:33:04.127Z,30.57
2023-09-08T16:35:51.301Z,30.57
2023-09-08T16:38:38.464Z,30.58
2023-09-08T16:41:25.729Z,30.60
2023-09-08T16:44:12.974Z,30.58
2023-09-08T16:47:00.249Z,30.59
2023-09-08T16:49:48.065Z,30.58
2023-09-08T16:52:35.322Z,30.61
2023-09-08T16:55:22.508Z,30.60
2023-09-08T16:58:09.669Z,30.60
2023-09-08T17:00:56.819Z,30.61
2023-09-08T17:03:44.032Z,30.63
2023-09-08T17:06:31.383Z,30.63
2023-09-08T17:09:18.822Z,30.63
2023-09-08T17:12:08.288Z,30.64
2023-09-08T17:14:55.778Z,30.67
2023-09-08T17:17:42.927Z,30.65
2023-09-08T17:20:32.164Z,30.66
2023-09-08T17:23:19.588Z,30.70
2023-09-08T17:26:08.627Z,30.69
2023-09-08T17:28:55.885Z,30.68
2023-09-08T17:31:43.170Z,30.70
2023-09-08T17:34:30.574Z,30.69
2023-09-08T17:37:17.806Z,30.70
2023-09-08T17:40:06.242Z,30.73
2023-09-08T17:42:53.457Z,30.73
2023-09-08T17:45:40.901Z,30.73
2023-09-08T17:48:28.149Z,30.74
2023-09-08T17:51:15.349Z,30.75
2023-09-08T17:54:03.154Z,30.76
2023-09-08T17:56:50.285Z,30.76
2023-09-08T17:59:37.480Z,30.75
2023-09-08T18:02:26.031Z,30.77
2023-09-08T18:05:13.366Z,30.76
2023-09-08T18:08:00.561Z,30.80
2023-09-08T18:10:47.897Z,30.77
2023-09-08T18:13:35.420Z,30.76
2023-09-08T18:16:22.763Z,30.79
2023-09-08T18:19:10.128Z,30.80
2023-09-08T18:21:58.310Z,30.80
2023-09-08T18:24:45.553Z,30.81
2023-09-08T18:27:32.706Z,30.81
2023-09-08T18:30:19.923Z,30.81
2023-09-08T18:33:07.169Z,30.81
2023-09-08T18:35:54.399Z,30.83
2023-09-08T18:38:41.575Z,30.82
2023-09-08T18:41:28.700Z,30.80
2023-09-08T18:44:15.882Z,30.82
2023-09-08T18:47:04.136Z,30.82
2023-09-08T18:49:51.425Z,30.83
2023-09-08T18:52:38.721Z,30.84
2023-09-08T18:55:25.933Z,30.83
2023-09-08T18:58:13.146Z,30.83
2023-09-08T19:01:08.206Z,30.87
2023-09-08T19:03:55.568Z,30.86
2023-09-08T19:06:43.664Z,30.85
2023-09-08T19:09:30.902Z,30.86
2023-09-08T19:12:18.092Z,30.84
2023-09-08T19:15:06.065Z,30.84
2023-09-08T19:17:53.410Z,30.87
2023-09-08T19:20:40.599Z,30.85
2023-09-08T19:23:28.403Z,30.87
2023-09-08T19:26:15.505Z,30.85
2023-09-08T19:29:03.160Z,30.87
2023-09-08T19:31:50.645Z,30.87
2023-09-08T19:34:37.803Z,30.86
2023-09-08T19:37:24.999Z,30.87
2023-09-08T19:40:12.282Z,30.88
2023-09-08T19:42:59.474Z,30.89
2023-09-08T19:45:46.649Z,30.87
2023-09-08T19:48:35.923Z,30.89
2023-09-08T19:51:23.277Z,30.88
2023-09-08T19:54:10.401Z,30.88
2023-09-08T19:56:57.730Z,30.89
2023-09-08T19:59:44.922Z,30.89
2023-09-08T20:02:32.982Z,30.86
2023-09-08T20:05:20.210Z,30.89
2023-09-08T20:08:07.750Z,30.88
2023-09-08T20:10:55.594Z,30.89
2023-09-08T20:13:43.291Z,30.89
2023-09-08T20:16:30.493Z,30.91
2023-09-08T20:19:17.775Z,30.90
2023-09-08T20:22:04.983Z,30.89
2023-09-08T20:24:52.169Z,30.90
2023-09-08T20:27:39.554Z,30.90
2023-09-08T20:30:26.785Z,30.88
2023-09-08T20:33:13.983Z,30.90
2023-09-08T20:36:01.145Z,30.90
2023-09-08T20:38:48.411Z,30.90
2023-09-08T20:41:35.753Z,30.93
2023-09-08T20:44:23.163Z,30.90
2023-09-08T20:47:12.256Z,30.92
2023-09-08T20:49:59.483Z,30.93
2023-09-08T20:52:46.623Z,30.92
2023-09-08T20:55:33.764Z,30.92
2023-09-08T20:58:21.083Z,30.91
2023-09-08T21:01:09.041Z,30.93
2023-09-08T21:03:56.720Z,30.94
2023-09-08T21:06:43.933Z,30.94
2023-09-08T21:09:31.098Z,30.93
2023-09-08T21:12:18.231Z,30.93
2023-09-08T21:15:06.559Z,30.92
2023-09-08T21:17:53.793Z,30.93
2023-09-08T21:20:40.976Z,30.93
2023-09-08T21:23:29.193Z,30.94
2023-09-08T21:26:17.987Z,30.92
2023-09-08T21:29:05.352Z,30.93
2023-09-08T21:31:52.570Z,30.95
2023-09-08T21:34:39.799Z,30.94
2023-09-08T21:37:27.072Z,30.94
2023-09-08T21:40:14.544Z,30.94
2023-09-08T21:43:01.750Z,30.95
2023-09-08T21:45:52.173Z,30.93
2023-09-08T21:48:40.195Z,30.93
2023-09-08T21:51:27.789Z,30.94
2023-09-08T21:54:14.901Z,30.97
2023-09-08T21:57:02.150Z,30.92
2023-09-08T21:59:49.287Z,30.93
2023-09-08T22:02:36.492Z,30.93
2023-09-08T22:05:23.830Z,30.92
2023-09-08T22:08:11.013Z,30.90
2023-09-08T22:11:06.086Z,30.95
2023-09-08T22:13:53.367Z,30.88
2023-09-08T22:16:40.761Z,30.88
2023-09-08T22:19:27.940Z,30.85
2023-09-08T22:22:15.096Z,30.85
2023-09-08T22:25:02.388Z,30.84
2023-09-08T22:27:49.939Z,30.83
2023-09-08T22:30:37.141Z,30.82
2023-09-08T22:33:26.167Z,30.82
2023-09-08T22:36:13.478Z,30.81
2023-09-08T22:39:00.939Z,30.81
2023-09-08T22:41:48.436Z,30.79
2023-09-08T22:44:35.580Z,30.78
2023-09-08T22:47:22.710Z,30.80
2023-09-08T22:50:13.309Z,30.77
2023-09-08T22:53:01.090Z,30.77
2023-09-08T22:55:48.299Z,30.77
2023-09-08T22:58:42.731Z,30.80
2023-09-08T23:01:29.864Z,30.74
2023-09-08T23:04:16.969Z,30.75
2023-09-08T23:07:04.313Z,30.73
2023-09-08T23:09:52.758Z,30.76
2023-09-08T23:12:39.964Z,30.75
2023-09-08T23:15:29.658Z,30.74
2023-09-08T23:18:17.653Z,30.72
2023-09-08T23:21:05.075Z,30.71
2023-09-08T23:23:52.315Z,30.70
2023-09-08T23:26:40.732Z,30.71
2023-09-08T23:29:27.883Z,30.73
2023-09-08T23:32:16.082Z,30.73
2023-09-08T23:35:05.040Z,30.71
2023-09-08T23:37:52.392Z,30.70
2023-09-08T23:40:39.550Z,30.70
2023-09-08T23:43:27.679Z,30.69
2023-09-08T23:46:14.975Z,30.71
2023-09-08T23:49:02.236Z,30.70
2023-09-08T23:51:49.350Z,30.70
2023-09-08T23:54:36.412Z,30.70
2023-09-08T23:57:23.669Z,30.68
